createdAt,value
2023-05-23T05:03:45.593Z,17.86
2023-05-23T05:08:47.532Z,17.93
2023-05-23T05:13:49.666Z,18.04
2023-05-23T05:18:52.439Z,18.11
2023-05-23T05:23:55.327Z,18.17
2023-05-23T05:28:57.081Z,18.20
2023-05-23T05:33:59.410Z,18.20
2023-05-23T05:39:02.068Z,18.20
2023-05-23T05:44:03.653Z,18.24
2023-05-23T05:49:05.355Z,18.31
2023-05-23T05:54:07.191Z,18.37
2023-05-23T05:59:08.877Z,18.40
2023-05-23T06:04:12.637Z,18.40
2023-05-23T06:09:16.211Z,18.36
2023-05-23T06:14:18.030Z,18.29
2023-05-23T06:19:21.809Z,18.28
2023-05-23T06:24:23.427Z,18.35
2023-05-23T06:29:24.997Z,18.38
2023-05-23T06:34:26.525Z,18.38
2023-05-23T06:39:28.016Z,18.38
2023-05-23T06:44:29.964Z,18.40
2023-05-23T06:49:31.533Z,18.32
2023-05-23T06:54:33.329Z,18.28
2023-05-23T06:59:35.441Z,18.28
2023-05-23T07:04:38.478Z,18.30
2023-05-23T07:09:46.493Z,18.36
2023-05-23T07:14:52.694Z,18.40
2023-05-23T07:19:56.197Z,18.49
2023-05-23T07:24:58.777Z,18.58
2023-05-23T07:30:07.496Z,18.57
2023-05-23T07:35:11.029Z,18.65
2023-05-23T07:40:12.641Z,18.81
2023-05-23T07:45:14.801Z,18.96
2023-05-23T07:50:18.490Z,19.13
2023-05-23T07:55:20.139Z,19.13
2023-05-23T08:00:22.231Z,19.17
2023-05-23T08:05:30.127Z,19.28
2023-05-23T08:10:32.747Z,19.25
2023-05-23T08:15:41.526Z,19.13
2023-05-23T08:20:49.934Z,19.25
2023-05-23T08:25:52.933Z,19.33
2023-05-23T08:30:57.021Z,19.24
2023-05-23T08:35:59.584Z,19.06
2023-05-23T08:41:02.081Z,18.84
2023-05-23T08:46:06.087Z,18.71
2023-05-23T08:51:14.247Z,18.67
2023-05-23T08:56:16.498Z,18.65
2023-05-23T09:01:23.543Z,18.72
2023-05-23T09:06:28.345Z,18.85
2023-05-23T09:11:36.130Z,18.96
2023-05-23T09:16:40.121Z,18.99
2023-05-23T09:21:47.289Z,18.98
2023-05-23T09:27:09.057Z,18.88
2023-05-23T09:32:16.081Z,18.67
2023-05-23T09:37:19.357Z,18.43
2023-05-23T09:42:25.014Z,18.12
2023-05-23T09:47:27.226Z,17.93
2023-05-23T09:52:35.957Z,17.83
2023-05-23T09:57:41.399Z,17.80
2023-05-23T10:02:55.120Z,18.11
2023-05-23T10:08:00.764Z,18.52
2023-05-23T10:13:05.312Z,19.07
2023-05-23T10:18:14.345Z,19.28
2023-05-23T10:23:16.728Z,19.29
2023-05-23T10:28:18.932Z,19.13
2023-05-23T10:33:22.512Z,18.94
2023-05-23T10:38:36.557Z,18.77
2023-05-23T10:43:57.136Z,18.58
2023-05-23T10:48:59.080Z,18.34
2023-05-23T10:54:00.810Z,18.32
2023-05-23T10:59:06.252Z,18.42
2023-05-23T11:04:07.891Z,18.52
2023-05-23T11:09:21.131Z,18.63
2023-05-23T11:14:38.206Z,18.73
2023-05-23T11:19:40.136Z,18.78
2023-05-23T11:24:52.220Z,18.74
2023-05-23T11:30:04.313Z,18.68
2023-05-23T11:35:08.357Z,18.64
2023-05-23T11:40:30.030Z,18.64
2023-05-23T11:45:32.964Z,18.65
2023-05-23T11:50:43.228Z,18.83
2023-05-23T11:56:00.242Z,19.19
2023-05-23T12:01:03.334Z,19.41
2023-05-23T12:06:05.134Z,19.50
2023-05-23T12:11:07.113Z,19.57
2023-05-23T12:16:08.795Z,19.65
2023-05-23T12:21:10.494Z,19.82
2023-05-23T12:26:12.172Z,19.95
2023-05-23T12:31:22.088Z,19.83
2023-05-23T12:36:29.638Z,19.71
2023-05-23T12:41:33.250Z,19.63
2023-05-23T12:46:34.756Z,19.41
2023-05-23T12:51:36.595Z,19.14
2023-05-23T12:56:38.157Z,19.00
2023-05-23T13:01:39.787Z,18.83
2023-05-23T13:06:41.281Z,18.73
2023-05-23T13:11:42.998Z,18.50
2023-05-23T13:16:45.524Z,18.36
2023-05-23T13:21:49.380Z,18.04
2023-05-23T13:26:51.346Z,17.66
2023-05-23T13:31:53.696Z,17.40
2023-05-23T13:36:55.626Z,17.22
2023-05-23T13:41:57.112Z,16.90
2023-05-23T13:47:12.638Z,16.70
2023-05-23T13:52:14.918Z,16.55
2023-05-23T13:57:16.853Z,16.58
2023-05-23T14:02:18.319Z,16.73
2023-05-23T14:07:20.486Z,16.84
2023-05-23T14:12:21.926Z,16.78
2023-05-23T14:17:23.871Z,16.74
2023-05-23T14:22:25.441Z,16.73
2023-05-23T14:27:27.005Z,16.67
2023-05-23T14:32:28.501Z,16.50
2023-05-23T14:37:29.958Z,16.38
2023-05-23T14:42:31.471Z,16.28
2023-05-23T14:47:33.082Z,16.22
2023-05-23T14:52:34.594Z,16.26
2023-05-23T14:57:36.441Z,16.26
2023-05-23T15:02:37.945Z,16.20
2023-05-23T15:07:40.315Z,16.17
2023-05-23T15:12:41.757Z,16.16
2023-05-23T15:17:43.236Z,16.11
2023-05-23T15:22:44.747Z,15.98
2023-05-23T15:27:46.193Z,15.88
2023-05-23T15:32:48.127Z,15.81
2023-05-23T15:37:49.682Z,15.68
2023-05-23T15:42:51.175Z,15.61
2023-05-23T15:47:52.740Z,15.59
2023-05-23T15:52:54.249Z,15.56
2023-05-23T15:57:55.883Z,15.40
2023-05-23T16:02:57.356Z,15.24
2023-05-23T16:07:58.887Z,15.13
2023-05-23T16:13:00.379Z,14.98
2023-05-23T16:18:03.173Z,14.91
2023-05-23T16:23:04.877Z,14.85
2023-05-23T16:28:06.400Z,14.79
2023-05-23T16:33:07.982Z,14.75
2023-05-23T16:38:09.689Z,14.71
2023-05-23T16:43:12.506Z,14.55
2023-05-23T16:48:14.036Z,14.46
2023-05-23T16:53:15.625Z,14.35
2023-05-23T16:58:18.713Z,14.25
2023-05-23T17:03:21.761Z,14.13
2023-05-23T17:08:23.291Z,13.94
2023-05-23T17:13:24.845Z,13.82
2023-05-23T17:18:26.332Z,13.79
2023-05-23T17:23:27.904Z,13.73
2023-05-23T17:28:29.434Z,13.76
2023-05-23T17:33:30.908Z,13.68
2023-05-23T17:38:32.594Z,13.55
2023-05-23T17:43:34.091Z,13.43
2023-05-23T17:48:47.061Z,13.35
2023-05-23T17:53:53.397Z,13.28
2023-05-23T17:58:54.887Z,13.23
2023-05-23T18:03:56.605Z,13.11
2023-05-23T18:08:58.115Z,12.99
2023-05-23T18:13:59.567Z,12.88
2023-05-23T18:19:01.213Z,12.82
2023-05-23T18:24:03.941Z,12.74
2023-05-23T18:29:05.320Z,12.67
2023-05-23T18:34:06.940Z,12.67
2023-05-23T18:39:09.117Z,12.62
2023-05-23T18:44:10.949Z,12.58
2023-05-23T18:49:12.484Z,12.46
2023-05-23T18:54:13.968Z,12.45
2023-05-23T18:59:16.802Z,12.39
2023-05-23T19:04:18.460Z,12.31
2023-05-23T19:09:20.234Z,12.31
2023-05-23T19:14:21.808Z,12.29
2023-05-23T19:19:23.284Z,12.33
2023-05-23T19:24:24.828Z,12.35
2023-05-23T19:29:26.441Z,12.36
2023-05-23T19:34:28.282Z,12.40
2023-05-23T19:39:29.734Z,12.42
2023-05-23T19:44:31.397Z,12.42
2023-05-23T19:49:32.917Z,12.39
2023-05-23T19:54:34.563Z,12.37
2023-05-23T19:59:36.044Z,12.30
2023-05-23T20:04:37.495Z,12.30
2023-05-23T20:09:38.940Z,12.33
2023-05-23T20:14:40.889Z,12.35
2023-05-23T20:19:42.598Z,12.34
2023-05-23T20:24:44.066Z,12.33
2023-05-23T20:29:45.669Z,12.34
2023-05-23T20:34:47.150Z,12.33
2023-05-23T20:39:49.206Z,12.30
2023-05-23T20:44:50.653Z,12.33
2023-05-23T20:49:52.111Z,12.32
2023-05-23T20:54:54.421Z,12.33
2023-05-23T20:59:55.994Z,12.33
2023-05-23T21:05:00.499Z,12.32
2023-05-23T21:15:53.983Z,12.33
2023-05-23T21:20:55.826Z,12.36
2023-05-23T21:25:57.376Z,12.35
2023-05-23T21:30:58.832Z,12.35
2023-05-23T21:36:01.076Z,12.32
2023-05-23T21:41:02.673Z,12.30
2023-05-23T21:46:04.180Z,12.29
2023-05-23T21:51:05.766Z,12.25
2023-05-23T21:56:07.370Z,12.27
